createdAt,value
2022-12-11T00:02:07.402Z,40.20
2022-12-11T00:04:34.026Z,43.25
2022-12-11T00:07:00.589Z,41.97
2022-12-11T00:09:27.275Z,44.42
2022-12-11T00:11:53.867Z,41.90
2022-12-11T00:14:20.558Z,40.38
2022-12-11T00:16:48.553Z,47.33
2022-12-11T00:19:15.838Z,41.90
2022-12-11T00:21:42.392Z,42.28
2022-12-11T00:24:08.997Z,43.60
2022-12-11T00:26:35.530Z,46.13
2022-12-11T00:29:02.126Z,48.30
2022-12-11T00:31:28.707Z,46.73
2022-12-11T00:33:55.362Z,47.70
2022-12-11T00:36:25.498Z,47.65
2022-12-11T00:38:53.754Z,46.30
2022-12-11T00:41:21.315Z,44.80
2022-12-11T00:43:48.364Z,43.20
2022-12-11T00:46:15.086Z,42.55
2022-12-11T00:48:41.726Z,42.88
2022-12-11T00:51:08.497Z,43.13
2022-12-11T00:53:35.098Z,43.13
2022-12-11T00:56:01.649Z,37.23
2022-12-11T00:58:28.445Z,42.20
2022-12-11T01:00:55.122Z,42.35
2022-12-11T01:03:21.782Z,44.28
2022-12-11T01:05:53.415Z,47.90
2022-12-11T01:08:20.073Z,43.67
2022-12-11T01:10:46.901Z,40.95
2022-12-11T01:13:13.459Z,40.97
2022-12-11T01:15:43.716Z,45.58
2022-12-11T01:18:13.492Z,44.15
2022-12-11T01:20:43.280Z,44.13
2022-12-11T01:23:12.965Z,48.88
2022-12-11T01:25:40.079Z,44.88
2022-12-11T01:28:07.451Z,43.45
2022-12-11T01:30:34.605Z,51.92
2022-12-11T01:33:01.358Z,49.23
2022-12-11T01:35:28.229Z,51.08
2022-12-11T01:37:55.056Z,46.00
2022-12-11T01:40:22.460Z,52.90
2022-12-11T01:42:49.108Z,50.85
2022-12-11T01:45:16.617Z,45.30
2022-12-11T01:47:44.201Z,49.22
2022-12-11T01:50:11.433Z,43.25
2022-12-11T01:52:38.265Z,47.65
2022-12-11T01:55:05.464Z,40.65
2022-12-11T01:57:32.333Z,46.63
2022-12-11T01:59:58.878Z,43.35
2022-12-11T02:02:29.483Z,47.38
2022-12-11T02:04:56.322Z,49.03
2022-12-11T02:07:23.513Z,42.05
2022-12-11T02:09:50.120Z,42.57
2022-12-11T02:12:30.690Z,39.83
2022-12-11T02:15:04.418Z,42.80
2022-12-11T02:17:37.969Z,39.83
2022-12-11T02:20:23.662Z,42.65
2022-12-11T02:23:20.200Z,39.30
2022-12-11T02:26:12.303Z,47.60
2022-12-11T02:28:45.637Z,42.40
2022-12-11T02:31:23.823Z,41.95
2022-12-11T02:34:01.525Z,40.15
2022-12-11T02:36:31.823Z,39.80
2022-12-11T02:39:01.471Z,44.75
2022-12-11T02:41:29.937Z,45.60
2022-12-11T02:43:59.123Z,46.70
2022-12-11T02:46:28.340Z,39.78
2022-12-11T02:48:56.439Z,43.73
2022-12-11T02:51:28.307Z,47.42
2022-12-11T02:53:58.200Z,42.83
2022-12-11T02:56:33.564Z,43.28
2022-12-11T02:59:06.163Z,41.95
2022-12-11T03:01:32.822Z,38.03
2022-12-11T03:03:59.518Z,39.13
2022-12-11T03:06:36.287Z,36.28
2022-12-11T03:09:04.570Z,36.38
2022-12-11T03:11:31.101Z,42.70
2022-12-11T03:13:58.012Z,42.47
2022-12-11T03:16:36.031Z,39.08
2022-12-11T03:19:18.089Z,41.05
2022-12-11T03:21:49.552Z,39.10
2022-12-11T03:24:25.605Z,36.30
2022-12-11T03:27:00.988Z,37.63
2022-12-11T03:29:54.000Z,43.38
2022-12-11T03:32:25.397Z,34.03
2022-12-11T03:34:59.751Z,37.10
2022-12-11T03:37:31.332Z,40.83
2022-12-11T03:40:03.211Z,37.07
2022-12-11T03:42:30.651Z,37.67
2022-12-11T03:44:59.948Z,33.80
2022-12-11T03:47:28.786Z,35.88
2022-12-11T03:49:57.124Z,38.65
2022-12-11T03:52:27.370Z,35.90
2022-12-11T03:54:57.775Z,38.88
2022-12-11T03:57:29.219Z,34.03
2022-12-11T03:59:55.958Z,36.42
2022-12-11T04:02:22.556Z,33.92
2022-12-11T04:04:49.197Z,33.50
2022-12-11T04:07:16.190Z,38.53
2022-12-11T04:09:42.815Z,32.33
2022-12-11T04:12:09.375Z,35.22
2022-12-11T04:14:54.511Z,31.58
2022-12-11T04:17:39.589Z,32.43
2022-12-11T04:20:39.664Z,34.03
2022-12-11T04:23:31.838Z,31.63
2022-12-11T04:26:08.388Z,33.72
2022-12-11T04:28:35.681Z,34.95
2022-12-11T04:31:02.657Z,27.37
2022-12-11T04:33:29.642Z,33.20
2022-12-11T04:36:01.005Z,29.33
2022-12-11T04:38:27.843Z,27.55
2022-12-11T04:41:00.415Z,27.58
2022-12-11T04:43:27.758Z,27.83
2022-12-11T04:46:07.198Z,34.22
2022-12-11T04:48:34.602Z,30.75
2022-12-11T04:51:01.103Z,23.98
2022-12-11T04:53:28.077Z,30.73
2022-12-11T04:55:55.082Z,25.70
2022-12-11T04:58:22.710Z,31.65
2022-12-11T05:00:49.271Z,25.88
2022-12-11T05:03:15.849Z,28.48
2022-12-11T05:05:48.672Z,30.67
2022-12-11T05:08:15.384Z,25.13
2022-12-11T05:10:47.120Z,26.73
2022-12-11T05:13:16.465Z,24.92
2022-12-11T05:15:43.059Z,28.40
2022-12-11T05:18:09.598Z,24.73
2022-12-11T05:20:36.173Z,26.00
2022-12-11T05:23:02.800Z,27.77
2022-12-11T05:25:30.905Z,24.42
2022-12-11T05:27:57.723Z,27.80
2022-12-11T05:30:24.253Z,23.83
2022-12-11T05:32:50.835Z,26.93
2022-12-11T05:35:18.580Z,22.80
2022-12-11T05:37:45.182Z,25.23
2022-12-11T05:40:12.774Z,21.85
2022-12-11T05:42:39.292Z,23.73
2022-12-11T05:45:06.486Z,25.13
2022-12-11T05:47:33.060Z,23.27
2022-12-11T05:49:59.603Z,26.75
2022-12-11T05:52:27.374Z,24.05
2022-12-11T05:54:53.908Z,23.08
2022-12-11T05:57:20.451Z,25.10
2022-12-11T05:59:47.271Z,24.30
2022-12-11T06:02:13.964Z,22.05
2022-12-11T06:04:40.600Z,23.73
2022-12-11T06:07:07.146Z,23.95
2022-12-11T06:09:33.725Z,21.57
2022-12-11T06:12:00.251Z,20.98
2022-12-11T06:14:27.070Z,23.83
2022-12-11T06:16:53.618Z,30.30
2022-12-11T06:19:20.327Z,52.20
2022-12-11T06:21:48.970Z,27.57
2022-12-11T06:24:15.624Z,27.70
2022-12-11T06:26:42.214Z,23.85
2022-12-11T06:29:12.502Z,23.25
2022-12-11T06:31:39.690Z,21.70
2022-12-11T06:34:06.395Z,23.67
2022-12-11T06:36:32.996Z,23.17
2022-12-11T06:39:00.840Z,23.90
2022-12-11T06:41:27.474Z,24.35
2022-12-11T06:43:54.027Z,24.92
2022-12-11T06:46:20.846Z,21.27
2022-12-11T06:48:48.713Z,24.15
2022-12-11T06:51:18.336Z,23.75
2022-12-11T06:53:44.957Z,24.20
2022-12-11T06:56:15.161Z,26.05
2022-12-11T06:58:42.930Z,25.67
2022-12-11T07:01:16.288Z,23.40
2022-12-11T07:03:43.639Z,21.85
2022-12-11T07:06:10.289Z,23.60
2022-12-11T07:08:36.892Z,22.55
2022-12-11T07:11:06.539Z,26.70
2022-12-11T07:13:33.847Z,28.38
2022-12-11T07:16:01.987Z,28.17
2022-12-11T07:18:29.067Z,28.20
2022-12-11T07:20:58.903Z,29.33
2022-12-11T07:23:26.725Z,31.00
2022-12-11T07:25:53.768Z,32.47
2022-12-11T07:28:20.577Z,25.88
2022-12-11T07:30:47.211Z,30.42
2022-12-11T07:33:13.848Z,28.77
2022-12-11T07:35:40.438Z,27.30
2022-12-11T07:38:07.191Z,27.65
2022-12-11T07:40:34.606Z,31.15
2022-12-11T07:43:01.107Z,32.25
2022-12-11T07:45:27.861Z,28.20
2022-12-11T07:51:43.877Z,27.33
2022-12-11T07:54:52.356Z,25.88
2022-12-11T07:57:18.970Z,29.25
2022-12-11T07:59:46.790Z,27.55
2022-12-11T08:02:13.339Z,28.40
2022-12-11T08:04:40.011Z,28.42
2022-12-11T08:07:07.748Z,26.48
2022-12-11T08:09:34.371Z,29.92
2022-12-11T08:12:00.992Z,27.80
2022-12-11T08:14:27.692Z,25.73
2022-12-11T08:16:54.303Z,28.10
2022-12-11T08:19:20.990Z,26.67
2022-12-11T08:21:47.566Z,25.67
2022-12-11T08:24:16.392Z,24.92
2022-12-11T08:26:42.962Z,28.67
2022-12-11T08:29:10.114Z,23.90
2022-12-11T08:31:36.839Z,29.33
2022-12-11T08:34:03.500Z,30.15
2022-12-11T08:36:30.121Z,27.02
2022-12-11T08:38:57.236Z,26.90
2022-12-11T08:41:26.749Z,26.80
2022-12-11T08:43:55.135Z,42.30
2022-12-11T08:46:24.527Z,30.85
2022-12-11T08:48:51.832Z,27.40
2022-12-11T08:51:22.430Z,25.63
2022-12-11T08:53:50.324Z,27.08
2022-12-11T08:56:20.475Z,24.17
2022-12-11T08:58:47.963Z,26.15
2022-12-11T09:01:21.807Z,23.95
2022-12-11T09:03:50.276Z,21.63
2022-12-11T09:06:20.218Z,24.90
2022-12-11T09:08:52.164Z,23.05
2022-12-11T09:11:21.975Z,22.98
2022-12-11T09:13:48.702Z,20.20
2022-12-11T09:16:19.489Z,22.90
2022-12-11T09:18:48.601Z,23.95
2022-12-11T09:21:17.226Z,24.38
2022-12-11T09:23:43.840Z,23.83
2022-12-11T09:26:13.762Z,23.92
2022-12-11T09:28:46.171Z,24.13
2022-12-11T09:31:23.811Z,21.95
2022-12-11T09:33:52.102Z,25.25
2022-12-11T09:36:19.055Z,26.33
2022-12-11T09:38:46.282Z,22.67
2022-12-11T09:41:25.363Z,27.03
2022-12-11T09:44:00.543Z,25.42
2022-12-11T09:46:33.808Z,24.40
2022-12-11T09:55:28.459Z,22.07
2022-12-11T10:00:45.914Z,27.08
2022-12-11T10:03:35.051Z,22.83
2022-12-11T10:06:14.553Z,21.30
2022-12-11T10:08:54.736Z,23.37
2022-12-11T10:11:42.527Z,23.88
2022-12-11T10:14:30.337Z,23.63
2022-12-11T10:17:04.096Z,24.35
2022-12-11T10:19:32.713Z,23.77
2022-12-11T10:22:01.068Z,21.87
2022-12-11T10:25:10.116Z,24.70
2022-12-11T10:27:32.010Z,22.15
2022-12-11T10:30:08.593Z,21.88
2022-12-11T10:32:40.009Z,21.70
2022-12-11T10:35:07.319Z,23.87
2022-12-11T10:37:33.899Z,22.65
2022-12-11T10:40:08.341Z,24.92
2022-12-11T10:42:58.493Z,24.95
2022-12-11T10:45:25.072Z,23.92
2022-12-11T10:48:02.590Z,21.97
2022-12-11T10:50:29.387Z,23.58
2022-12-11T10:52:55.948Z,23.95
2022-12-11T10:55:29.608Z,20.48
2022-12-11T11:01:32.179Z,21.60
2022-12-11T11:04:14.458Z,20.38
2022-12-11T11:10:03.256Z,19.10
2022-12-11T11:12:31.574Z,22.17
2022-12-11T11:15:19.930Z,19.23
2022-12-11T11:17:55.818Z,19.38
2022-12-11T11:20:27.733Z,19.52
2022-12-11T11:23:02.673Z,20.80
2022-12-11T11:25:35.479Z,18.17
2022-12-11T11:28:06.084Z,20.80
2022-12-11T11:30:37.321Z,18.85
2022-12-11T11:33:12.458Z,18.08
2022-12-11T11:35:45.505Z,21.88
2022-12-11T11:38:24.784Z,18.92
2022-12-11T11:41:07.573Z,20.57
2022-12-11T11:43:48.532Z,18.80
2022-12-11T11:46:16.440Z,18.95
2022-12-11T11:48:52.442Z,17.58
2022-12-11T11:51:28.400Z,20.63
2022-12-11T11:54:00.596Z,21.33
2022-12-11T11:56:37.999Z,14.68
2022-12-11T11:59:38.533Z,18.80
2022-12-11T12:02:19.373Z,15.48
2022-12-11T12:04:52.191Z,18.20
2022-12-11T12:07:51.251Z,18.90
2022-12-11T12:10:27.505Z,19.48
2022-12-11T12:13:23.831Z,17.35
2022-12-11T12:16:02.124Z,17.35
2022-12-11T12:21:25.562Z,17.17
2022-12-11T12:23:53.027Z,16.23
2022-12-11T12:26:31.692Z,18.05
2022-12-11T12:29:23.456Z,17.55
2022-12-11T12:31:50.290Z,16.48
2022-12-11T12:34:31.502Z,19.03
2022-12-11T12:37:06.118Z,16.38
2022-12-11T12:39:49.237Z,19.33
2022-12-11T12:42:37.468Z,16.52
2022-12-11T12:45:13.640Z,19.40
2022-12-11T12:47:43.424Z,16.50
2022-12-11T12:50:15.265Z,17.75
2022-12-11T12:52:42.615Z,16.20
2022-12-11T12:55:31.875Z,18.77
2022-12-11T12:58:03.253Z,16.60
2022-12-11T13:00:41.176Z,18.60
2022-12-11T13:03:18.506Z,17.77
2022-12-11T13:06:06.148Z,16.88
2022-12-11T13:08:46.341Z,18.60
2022-12-11T13:11:16.045Z,19.08
2022-12-11T13:13:54.479Z,22.90
2022-12-11T13:16:25.721Z,19.45
2022-12-11T13:18:53.610Z,21.05
2022-12-11T13:21:37.903Z,20.77
2022-12-11T13:24:13.539Z,18.48
2022-12-11T13:26:41.150Z,23.63
2022-12-11T13:29:31.658Z,21.13
2022-12-11T13:32:02.028Z,18.27
2022-12-11T13:34:33.818Z,22.27
2022-12-11T13:37:03.021Z,20.25
2022-12-11T13:39:32.361Z,21.80
2022-12-11T13:42:02.490Z,22.02
2022-12-11T13:44:34.367Z,18.40
2022-12-11T13:47:04.193Z,21.90
2022-12-11T13:49:36.878Z,22.67
2022-12-11T13:52:04.932Z,22.47
2022-12-11T13:54:36.017Z,25.20
2022-12-11T13:57:17.998Z,21.27
2022-12-11T13:59:53.160Z,25.52
2022-12-11T14:02:25.444Z,22.85
2022-12-11T14:04:56.106Z,19.33
2022-12-11T14:07:30.672Z,19.42
2022-12-11T14:10:02.654Z,24.58
2022-12-11T14:12:30.778Z,20.27
2022-12-11T14:14:59.882Z,26.05
2022-12-11T14:17:29.726Z,25.53
2022-12-11T14:19:59.306Z,22.90
2022-12-11T14:22:28.316Z,23.83
2022-12-11T14:24:58.383Z,24.13
2022-12-11T14:27:27.406Z,25.42
2022-12-11T14:29:54.282Z,23.37
2022-12-11T14:32:32.552Z,23.30
2022-12-11T14:35:04.275Z,23.92
2022-12-11T14:37:31.939Z,22.88
2022-12-11T14:40:08.232Z,21.77
2022-12-11T14:42:41.037Z,23.30
2022-12-11T14:45:14.332Z,21.13
2022-12-11T14:47:43.345Z,22.95
2022-12-11T14:50:19.968Z,27.77
2022-12-11T14:52:50.947Z,25.15
2022-12-11T14:55:25.877Z,25.37
2022-12-11T14:57:57.736Z,28.42
2022-12-11T15:00:28.487Z,24.15
2022-12-11T15:03:02.495Z,26.63
2022-12-11T15:05:30.141Z,23.55
2022-12-11T15:08:04.015Z,24.13
2022-12-11T15:10:37.140Z,26.90
2022-12-11T15:13:06.418Z,22.85
2022-12-11T15:15:44.937Z,24.85
2022-12-11T15:18:22.628Z,25.00
2022-12-11T15:20:54.821Z,27.57
2022-12-11T15:23:21.583Z,27.83
2022-12-11T15:25:58.036Z,27.35
2022-12-11T15:28:30.334Z,24.80
2022-12-11T15:31:02.218Z,26.13
2022-12-11T15:33:34.065Z,25.73
2022-12-11T15:36:05.364Z,27.35
2022-12-11T15:38:40.587Z,26.40
2022-12-11T15:41:14.733Z,25.63
2022-12-11T15:43:41.635Z,24.67
2022-12-11T15:46:08.326Z,28.40
2022-12-11T15:48:42.091Z,25.50
2022-12-11T15:51:09.759Z,26.55
2022-12-11T15:53:36.400Z,26.73
2022-12-11T15:56:03.299Z,26.65
2022-12-11T15:58:30.209Z,26.10
2022-12-11T16:00:57.857Z,26.05
2022-12-11T16:03:26.107Z,23.67
2022-12-11T16:05:53.430Z,27.02
2022-12-11T16:08:22.759Z,25.08
2022-12-11T16:10:53.287Z,29.13
2022-12-11T16:13:20.127Z,22.83
2022-12-11T16:15:48.800Z,24.08
2022-12-11T16:18:20.512Z,27.67
2022-12-11T16:20:48.367Z,28.88
2022-12-11T16:23:16.419Z,26.20
2022-12-11T16:25:45.717Z,22.20
2022-12-11T16:28:15.455Z,24.98
2022-12-11T16:30:43.742Z,23.10
2022-12-11T16:33:13.271Z,23.77
2022-12-11T16:35:42.027Z,25.73
2022-12-11T16:38:12.243Z,27.33
2022-12-11T16:40:39.020Z,25.65
2022-12-11T16:43:05.884Z,25.00
2022-12-11T16:45:33.536Z,27.90
2022-12-11T16:48:03.538Z,23.20
2022-12-11T16:50:30.185Z,29.75
2022-12-11T16:52:57.150Z,25.85
2022-12-11T16:55:23.856Z,25.30
2022-12-11T16:57:50.461Z,22.70
2022-12-11T17:00:17.443Z,26.70
2022-12-11T17:02:44.143Z,23.00
2022-12-11T17:05:11.215Z,24.13
2022-12-11T17:07:38.079Z,25.23
2022-12-11T17:10:07.060Z,26.83
2022-12-11T17:12:33.662Z,25.60
2022-12-11T17:15:05.193Z,24.05
2022-12-11T17:17:31.832Z,26.42
2022-12-11T17:19:58.653Z,21.30
2022-12-11T17:22:25.519Z,25.98
2022-12-11T17:24:52.150Z,24.33
2022-12-11T17:27:18.784Z,23.02
2022-12-11T17:29:45.483Z,23.13
2022-12-11T17:32:12.112Z,25.38
2022-12-11T17:34:38.915Z,23.77
2022-12-11T17:37:06.146Z,20.70
2022-12-11T17:39:32.941Z,20.83
2022-12-11T17:41:59.726Z,22.42
2022-12-11T17:44:30.322Z,25.45
2022-12-11T17:46:58.135Z,25.52
2022-12-11T17:49:24.906Z,20.90
2022-12-11T17:51:53.213Z,25.13
2022-12-11T17:54:20.155Z,21.08
2022-12-11T17:56:46.946Z,22.08
2022-12-11T17:59:13.623Z,20.52
2022-12-11T18:01:40.322Z,20.77
2022-12-11T18:04:06.976Z,20.05
2022-12-11T18:06:33.705Z,21.48
2022-12-11T18:09:01.467Z,20.10
2022-12-11T18:11:28.148Z,19.13
2022-12-11T18:13:55.034Z,20.73
2022-12-11T18:16:27.343Z,20.60
2022-12-11T18:18:54.382Z,21.30
2022-12-11T18:21:27.703Z,23.65
2022-12-11T18:23:54.955Z,21.35
2022-12-11T18:26:22.299Z,20.87
2022-12-11T18:28:52.430Z,24.30
2022-12-11T18:31:20.970Z,20.08
2022-12-11T18:33:48.563Z,25.73
2022-12-11T18:36:16.734Z,20.02
2022-12-11T18:38:47.079Z,22.07
2022-12-11T18:41:16.058Z,18.85
2022-12-11T18:43:42.798Z,24.15
2022-12-11T18:46:12.675Z,20.50
2022-12-11T18:48:39.899Z,20.70
2022-12-11T18:51:09.691Z,19.20
2022-12-11T18:53:39.156Z,19.73
2022-12-11T18:56:12.852Z,24.40
2022-12-11T18:58:39.847Z,21.02
2022-12-11T19:01:09.540Z,17.88
2022-12-11T19:03:36.884Z,19.00
2022-12-11T19:06:13.186Z,18.00
2022-12-11T19:08:40.215Z,16.90
2022-12-11T19:11:07.404Z,16.50
2022-12-11T19:13:34.672Z,16.08
2022-12-11T19:16:01.819Z,18.47
2022-12-11T19:18:28.509Z,16.20
2022-12-11T19:21:04.871Z,18.20
2022-12-11T19:23:35.196Z,15.30
2022-12-11T19:26:02.401Z,18.40
2022-12-11T19:28:29.297Z,18.07
2022-12-11T19:30:56.058Z,16.83
2022-12-11T19:33:22.840Z,17.13
2022-12-11T19:35:49.544Z,18.92
2022-12-11T19:38:16.187Z,15.45
2022-12-11T19:40:44.397Z,14.77
2022-12-11T19:43:11.730Z,16.05
2022-12-11T19:45:38.621Z,16.02
2022-12-11T19:48:05.764Z,17.13
2022-12-11T19:50:34.493Z,15.15
2022-12-11T19:53:01.192Z,18.27
2022-12-11T19:55:27.834Z,15.60
2022-12-11T19:57:55.454Z,16.73
2022-12-11T20:00:22.163Z,15.52
2022-12-11T20:02:49.161Z,15.27
2022-12-11T20:05:16.184Z,14.53
2022-12-11T20:07:44.706Z,19.60
2022-12-11T20:10:11.634Z,30.80
2022-12-11T20:12:38.277Z,29.65
2022-12-11T20:15:06.155Z,31.70
2022-12-11T20:17:33.474Z,49.73
2022-12-11T20:20:00.450Z,38.72
2022-12-11T20:22:27.225Z,20.30
2022-12-11T20:24:53.815Z,15.38
2022-12-11T20:27:20.416Z,15.98
2022-12-11T20:29:47.008Z,17.87
2022-12-11T20:32:15.737Z,19.58
2022-12-11T20:34:44.694Z,18.42
2022-12-11T20:37:11.343Z,18.60
2022-12-11T20:39:38.026Z,23.42
2022-12-11T20:42:05.804Z,21.60
2022-12-11T20:44:32.736Z,17.35
2022-12-11T20:46:59.371Z,16.80
2022-12-11T20:49:26.167Z,15.20
2022-12-11T20:51:52.959Z,16.83
2022-12-11T20:54:19.559Z,18.73
2022-12-11T20:56:46.308Z,17.58
2022-12-11T20:59:13.321Z,17.00
2022-12-11T21:01:40.825Z,17.48
2022-12-11T21:04:07.575Z,15.68
2022-12-11T21:06:36.471Z,19.07
2022-12-11T21:09:09.399Z,16.63
2022-12-11T21:11:36.033Z,20.75
2022-12-11T21:14:02.808Z,17.45
2022-12-11T21:16:29.550Z,16.92
2022-12-11T21:18:57.705Z,18.13
2022-12-11T21:21:25.249Z,18.20
2022-12-11T21:23:52.068Z,18.80
2022-12-11T21:26:19.313Z,17.00
2022-12-11T21:28:45.861Z,17.17
2022-12-11T21:31:15.189Z,16.60
2022-12-11T21:33:42.957Z,20.90
2022-12-11T21:39:02.875Z,15.93
2022-12-11T21:41:29.461Z,16.67
2022-12-11T21:45:14.528Z,14.67
2022-12-11T21:46:43.634Z,20.65
2022-12-11T21:49:10.342Z,17.48
2022-12-11T21:51:43.982Z,19.50
2022-12-11T21:54:16.721Z,17.77
2022-12-11T21:56:43.798Z,18.10
2022-12-11T21:59:10.472Z,17.63
2022-12-11T22:01:42.115Z,14.32
2022-12-11T22:04:10.808Z,17.13
2022-12-11T22:06:37.517Z,18.15
2022-12-11T22:09:05.185Z,21.27
2022-12-11T22:11:32.882Z,18.25
2022-12-11T22:13:59.481Z,16.90
2022-12-11T22:16:26.350Z,20.90
2022-12-11T22:18:53.462Z,19.70
2022-12-11T22:21:20.086Z,17.93
2022-12-11T22:23:47.817Z,20.65
2022-12-11T22:26:19.305Z,17.25
2022-12-11T22:28:46.079Z,17.10
2022-12-11T22:31:15.304Z,19.33
2022-12-11T22:33:42.487Z,15.83
2022-12-11T22:36:10.415Z,17.75
2022-12-11T22:38:37.139Z,18.17
2022-12-11T22:41:18.960Z,16.27
2022-12-11T22:43:48.840Z,17.52
2022-12-11T22:46:17.260Z,15.73
2022-12-11T22:48:44.025Z,16.23
2022-12-11T22:51:10.839Z,19.30
2022-12-11T22:53:37.598Z,20.00
2022-12-11T22:56:06.046Z,22.50
2022-12-11T22:58:33.378Z,15.80
2022-12-11T23:01:00.865Z,14.48
2022-12-11T23:03:27.818Z,16.73
2022-12-11T23:05:54.940Z,15.98
2022-12-11T23:08:21.713Z,17.73
2022-12-11T23:10:48.638Z,16.70
2022-12-11T23:13:15.247Z,17.58
2022-12-11T23:15:41.776Z,15.35
2022-12-11T23:18:08.372Z,18.02
2022-12-11T23:20:34.927Z,19.25
2022-12-11T23:23:01.717Z,17.13
2022-12-11T23:25:29.829Z,17.83
2022-12-11T23:27:56.466Z,19.90
2022-12-11T23:30:23.999Z,16.77
2022-12-11T23:32:50.688Z,16.80
2022-12-11T23:35:17.435Z,16.77
2022-12-11T23:37:43.994Z,17.77
2022-12-11T23:40:11.425Z,19.45
2022-12-11T23:42:38.000Z,15.43
2022-12-11T23:45:04.962Z,17.95
2022-12-11T23:47:31.533Z,19.30
2022-12-11T23:49:58.361Z,19.75
2022-12-11T23:52:26.628Z,17.77
2022-12-11T23:54:55.327Z,17.65
2022-12-11T23:57:22.051Z,18.30
2022-12-11T23:59:48.597Z,19.60
